sensor_id;sensor_type;location;lat;lon;timestamp;pressure;altitude;pressure_sealevel;temperature;humidity
75221;BME280;63802;53.232;6.570;2023-11-19T00:02:19;100498.25;;;10.63;100.00
75221;BME280;63802;53.232;6.570;2023-11-19T00:04:44;100453.56;;;10.42;100.00
75221;BME280;63802;53.232;6.570;2023-11-19T00:07:10;100477.31;;;10.71;100.00
75221;BME280;63802;53.232;6.570;2023-11-19T00:09:37;100469.59;;;10.76;100.00
75221;BME280;63802;53.232;6.570;2023-11-19T00:12:04;100463.41;;;10.80;100.00
75221;BME280;63802;53.232;6.570;2023-11-19T00:14:30;100468.56;;;10.88;100.00
75221;BME280;63802;53.232;6.570;2023-11-19T00:16:55;100455.69;;;10.89;100.00
75221;BME280;63802;53.232;6.570;2023-11-19T00:19:21;100464.38;;;10.98;100.00
75221;BME280;63802;53.232;6.570;2023-11-19T00:21:46;100440.44;;;10.84;100.00
75221;BME280;63802;53.232;6.570;2023-11-19T00:24:12;100436.28;;;10.97;100.00
75221;BME280;63802;53.232;6.570;2023-11-19T00:26:40;100446.47;;;11.04;100.00
75221;BME280;63802;53.232;6.570;2023-11-19T00:29:07;100436.41;;;11.11;100.00
75221;BME280;63802;53.232;6.570;2023-11-19T00:31:32;100445.06;;;11.17;100.00
75221;BME280;63802;53.232;6.570;2023-11-19T00:33:58;100455.97;;;11.17;100.00
75221;BME280;63802;53.232;6.570;2023-11-19T00:36:23;100439.66;;;11.20;100.00
75221;BME280;63802;53.232;6.570;2023-11-19T00:38:49;100412.84;;;10.93;100.00
75221;BME280;63802;53.232;6.570;2023-11-19T00:41:15;100424.72;;;11.11;100.00
75221;BME280;63802;53.232;6.570;2023-11-19T00:43:41;100439.72;;;11.31;100.00
75221;BME280;63802;53.232;6.570;2023-11-19T00:46:07;100433.88;;;11.29;100.00
75221;BME280;63802;53.232;6.570;2023-11-19T00:48:33;100435.06;;;11.35;100.00
75221;BME280;63802;53.232;6.570;2023-11-19T00:50:58;100403.75;;;11.22;100.00
75221;BME280;63802;53.232;6.570;2023-11-19T00:53:24;100419.06;;;11.30;100.00
75221;BME280;63802;53.232;6.570;2023-11-19T00:55:50;100415.19;;;11.34;100.00
75221;BME280;63802;53.232;6.570;2023-11-19T00:58:15;100390.50;;;11.24;100.00
75221;BME280;63802;53.232;6.570;2023-11-19T01:00:43;100420.72;;;11.41;100.00
75221;BME280;63802;53.232;6.570;2023-11-19T01:03:09;100415.63;;;11.40;100.00
75221;BME280;63802;53.232;6.570;2023-11-19T01:05:35;100410.13;;;11.36;100.00
75221;BME280;63802;53.232;6.570;2023-11-19T01:08:00;100400.69;;;11.30;100.00
75221;BME280;63802;53.232;6.570;2023-11-19T01:10:26;100389.75;;;11.27;100.00
75221;BME280;63802;53.232;6.570;2023-11-19T01:12:51;100396.47;;;11.36;100.00
75221;BME280;63802;53.232;6.570;2023-11-19T01:15:17;100399.31;;;11.51;100.00
75221;BME280;63802;53.232;6.570;2023-11-19T01:17:44;100404.75;;;11.47;100.00
75221;BME280;63802;53.232;6.570;2023-11-19T01:20:09;100399.72;;;11.53;100.00
75221;BME280;63802;53.232;6.570;2023-11-19T01:22:37;100379.63;;;11.27;100.00
75221;BME280;63802;53.232;6.570;2023-11-19T01:25:03;100378.44;;;11.25;100.00
75221;BME280;63802;53.232;6.570;2023-11-19T01:27:30;100372.53;;;11.19;100.00
75221;BME280;63802;53.232;6.570;2023-11-19T01:29:56;100413.78;;;11.51;100.00
75221;BME280;63802;53.232;6.570;2023-11-19T01:32:22;100423.50;;;11.52;100.00
75221;BME280;63802;53.232;6.570;2023-11-19T01:34:49;100422.31;;;11.50;100.00
75221;BME280;63802;53.232;6.570;2023-11-19T01:37:14;100407.06;;;11.41;100.00
75221;BME280;63802;53.232;6.570;2023-11-19T01:39:44;100367.16;;;11.33;100.00
75221;BME280;63802;53.232;6.570;2023-11-19T01:42:09;100402.06;;;11.54;100.00
75221;BME280;63802;53.232;6.570;2023-11-19T01:44:37;100407.13;;;11.52;100.00
75221;BME280;63802;53.232;6.570;2023-11-19T01:47:02;100373.44;;;11.34;100.00
75221;BME280;63802;53.232;6.570;2023-11-19T01:49:30;100401.66;;;11.52;100.00
75221;BME280;63802;53.232;6.570;2023-11-19T01:51:57;100356.97;;;11.27;100.00
75221;BME280;63802;53.232;6.570;2023-11-19T01:54:24;100386.03;;;11.49;100.00
75221;BME280;63802;53.232;6.570;2023-11-19T01:56:49;100387.97;;;11.49;100.00
75221;BME280;63802;53.232;6.570;2023-11-19T01:59:15;100376.22;;;11.41;100.00
75221;BME280;63802;53.232;6.570;2023-11-19T02:01:42;100378.94;;;11.44;100.00
75221;BME280;63802;53.232;6.570;2023-11-19T02:04:08;100378.56;;;11.42;100.00
75221;BME280;63802;53.232;6.570;2023-11-19T02:06:36;100350.78;;;11.30;100.00
75221;BME280;63802;53.232;6.570;2023-11-19T02:09:03;100349.19;;;11.29;100.00
75221;BME280;63802;53.232;6.570;2023-11-19T02:11:35;100364.50;;;11.40;100.00
75221;BME280;63802;53.232;6.570;2023-11-19T02:14:01;100333.56;;;11.26;100.00
75221;BME280;63802;53.232;6.570;2023-11-19T02:16:28;100333.50;;;11.19;100.00
75221;BME280;63802;53.232;6.570;2023-11-19T02:18:55;100365.63;;;11.32;100.00
75221;BME280;63802;53.232;6.570;2023-11-19T02:21:20;100371.13;;;11.39;100.00
75221;BME280;63802;53.232;6.570;2023-11-19T02:23:45;100381.28;;;11.39;100.00
75221;BME280;63802;53.232;6.570;2023-11-19T02:28:51;100389.88;;;11.41;100.00
75221;BME280;63802;53.232;6.570;2023-11-19T02:31:17;100363.19;;;11.24;100.00
75221;BME280;63802;53.232;6.570;2023-11-19T02:33:44;100374.97;;;11.31;100.00
75221;BME280;63802;53.232;6.570;2023-11-19T02:36:13;100361.59;;;11.23;100.00
75221;BME280;63802;53.232;6.570;2023-11-19T02:38:38;100355.34;;;11.19;100.00
75221;BME280;63802;53.232;6.570;2023-11-19T02:41:04;100377.69;;;11.31;100.00
75221;BME280;63802;53.232;6.570;2023-11-19T02:43:31;100360.06;;;11.22;100.00
75221;BME280;63802;53.232;6.570;2023-11-19T02:46:01;100360.34;;;11.13;100.00
75221;BME280;63802;53.232;6.570;2023-11-19T02:48:27;100373.72;;;11.22;100.00
75221;BME280;63802;53.232;6.570;2023-11-19T02:50:52;100373.31;;;11.23;100.00
75221;BME280;63802;53.232;6.570;2023-11-19T02:53:18;100383.94;;;11.32;100.00
75221;BME280;63802;53.232;6.570;2023-11-19T02:55:47;100354.50;;;11.11;100.00
75221;BME280;63802;53.232;6.570;2023-11-19T02:58:15;100367.06;;;11.19;100.00
75221;BME280;63802;53.232;6.570;2023-11-19T03:00:49;100357.69;;;11.17;100.00
75221;BME280;63802;53.232;6.570;2023-11-19T03:03:24;100326.66;;;10.92;100.00
75221;BME280;63802;53.232;6.570;2023-11-19T03:05:54;100351.41;;;11.13;100.00
75221;BME280;63802;53.232;6.570;2023-11-19T03:08:20;100352.09;;;11.03;100.00
75221;BME280;63802;53.232;6.570;2023-11-19T03:10:47;100330.94;;;10.93;100.00
75221;BME280;63802;53.232;6.570;2023-11-19T03:13:13;100320.75;;;10.90;100.00
75221;BME280;63802;53.232;6.570;2023-11-19T03:15:42;100308.97;;;10.78;100.00
75221;BME280;63802;53.232;6.570;2023-11-19T03:18:07;100359.94;;;11.08;100.00
75221;BME280;63802;53.232;6.570;2023-11-19T03:20:33;100340.31;;;10.92;100.00
75221;BME280;63802;53.232;6.570;2023-11-19T03:23:01;100352.91;;;11.07;100.00
75221;BME280;63802;53.232;6.570;2023-11-19T03:25:27;100338.44;;;11.03;100.00
75221;BME280;63802;53.232;6.570;2023-11-19T03:27:59;100340.38;;;11.02;100.00
75221;BME280;63802;53.232;6.570;2023-11-19T03:30:25;100325.13;;;10.98;100.00
75221;BME280;63802;53.232;6.570;2023-11-19T03:32:50;100320.81;;;10.97;100.00
75221;BME280;63802;53.232;6.570;2023-11-19T03:35:16;100316.13;;;10.94;100.00
75221;BME280;63802;53.232;6.570;2023-11-19T03:37:41;100332.56;;;11.01;100.00
75221;BME280;63802;53.232;6.570;2023-11-19T03:40:09;100341.69;;;11.15;100.00
75221;BME280;63802;53.232;6.570;2023-11-19T03:42:40;100347.53;;;11.17;100.00
75221;BME280;63802;53.232;6.570;2023-11-19T03:45:06;100337.41;;;11.18;100.00
75221;BME280;63802;53.232;6.570;2023-11-19T03:47:36;100310.28;;;10.95;100.00
75221;BME280;63802;53.232;6.570;2023-11-19T03:50:02;100336.56;;;11.14;100.00
75221;BME280;63802;53.232;6.570;2023-11-19T03:52:28;100331.06;;;11.07;100.00
75221;BME280;63802;53.232;6.570;2023-11-19T03:54:56;100336.56;;;11.10;100.00
75221;BME280;63802;53.232;6.570;2023-11-19T03:57:22;100322.47;;;11.05;100.00
75221;BME280;63802;53.232;6.570;2023-11-19T03:59:48;100324.84;;;11.10;100.00
75221;BME280;63802;53.232;6.570;2023-11-19T04:02:16;100336.16;;;11.12;100.00
75221;BME280;63802;53.232;6.570;2023-11-19T04:04:42;100335.03;;;11.13;100.00
75221;BME280;63802;53.232;6.570;2023-11-19T04:07:08;100330.72;;;11.12;100.00
75221;BME280;63802;53.232;6.570;2023-11-19T04:09:33;100335.78;;;11.13;100.00
75221;BME280;63802;53.232;6.570;2023-11-19T04:12:00;100308.41;;;11.03;100.00
75221;BME280;63802;53.232;6.570;2023-11-19T04:14:26;100320.13;;;11.07;100.00
75221;BME280;63802;53.232;6.570;2023-11-19T04:16:52;100320.19;;;11.14;100.00
75221;BME280;63802;53.232;6.570;2023-11-19T04:19:18;100318.59;;;11.09;100.00
75221;BME280;63802;53.232;6.570;2023-11-19T04:21:43;100298.94;;;10.90;100.00
75221;BME280;63802;53.232;6.570;2023-11-19T04:24:09;100306.03;;;10.98;100.00
75221;BME280;63802;53.232;6.570;2023-11-19T04:26:42;100320.97;;;11.11;100.00
75221;BME280;63802;53.232;6.570;2023-11-19T04:29:16;100330.69;;;11.08;100.00
75221;BME280;63802;53.232;6.570;2023-11-19T04:31:42;100328.38;;;11.10;100.00
75221;BME280;63802;53.232;6.570;2023-11-19T04:34:08;100329.56;;;11.13;100.00
75221;BME280;63802;53.232;6.570;2023-11-19T04:36:33;100323.31;;;11.12;100.00
75221;BME280;63802;53.232;6.570;2023-11-19T04:39:00;100309.63;;;11.09;100.00
75221;BME280;63802;53.232;6.570;2023-11-19T04:41:26;100322.56;;;11.19;100.00
75221;BME280;63802;53.232;6.570;2023-11-19T04:43:55;100322.22;;;11.24;100.00
75221;BME280;63802;53.232;6.570;2023-11-19T04:46:20;100329.28;;;11.25;100.00
75221;BME280;63802;53.232;6.570;2023-11-19T04:48:46;100324.94;;;11.20;100.00
75221;BME280;63802;53.232;6.570;2023-11-19T04:51:11;100306.44;;;11.00;100.00
75221;BME280;63802;53.232;6.570;2023-11-19T04:53:37;100335.47;;;11.22;100.00
75221;BME280;63802;53.232;6.570;2023-11-19T04:56:08;100318.16;;;11.04;100.00
75221;BME280;63802;53.232;6.570;2023-11-19T04:58:34;100313.88;;;11.03;100.00
75221;BME280;63802;53.232;6.570;2023-11-19T05:01:01;100332.31;;;11.16;100.00
75221;BME280;63802;53.232;6.570;2023-11-19T05:03:26;100326.44;;;11.11;100.00
75221;BME280;63802;53.232;6.570;2023-11-19T05:05:52;100337.34;;;11.11;100.00
75221;BME280;63802;53.232;6.570;2023-11-19T05:08:18;100343.97;;;11.13;100.00
75221;BME280;63802;53.232;6.570;2023-11-19T05:10:44;100339.69;;;11.12;100.00
75221;BME280;63802;53.232;6.570;2023-11-19T05:13:09;100330.31;;;11.10;100.00
75221;BME280;63802;53.232;6.570;2023-11-19T05:15:35;100339.66;;;11.09;100.00
75221;BME280;63802;53.232;6.570;2023-11-19T05:18:01;100343.56;;;11.11;100.00
75221;BME280;63802;53.232;6.570;2023-11-19T05:20:26;100339.25;;;11.07;100.00
75221;BME280;63802;53.232;6.570;2023-11-19T05:22:51;100326.28;;;10.97;100.00
75221;BME280;63802;53.232;6.570;2023-11-19T05:25:18;100354.47;;;11.08;100.00
75221;BME280;63802;53.232;6.570;2023-11-19T05:27:45;100354.44;;;11.04;100.00
75221;BME280;63802;53.232;6.570;2023-11-19T05:30:11;100340.38;;;11.02;100.00
75221;BME280;63802;53.232;6.570;2023-11-19T05:32:36;100359.88;;;11.01;100.00
75221;BME280;63802;53.232;6.570;2023-11-19T05:35:02;100352.81;;;10.96;100.00
75221;BME280;63802;53.232;6.570;2023-11-19T05:37:28;100335.94;;;10.84;100.00
75221;BME280;63802;53.232;6.570;2023-11-19T05:39:53;100366.09;;;10.98;100.00
75221;BME280;63802;53.232;6.570;2023-11-19T05:42:19;100345.00;;;10.95;100.00
75221;BME280;63802;53.232;6.570;2023-11-19T05:44:44;100363.00;;;11.03;100.00
75221;BME280;63802;53.232;6.570;2023-11-19T05:47:10;100364.56;;;11.04;100.00
75221;BME280;63802;53.232;6.570;2023-11-19T05:49:35;100373.13;;;10.99;100.00
75221;BME280;63802;53.232;6.570;2023-11-19T05:52:01;100380.13;;;11.00;100.00
75221;BME280;63802;53.232;6.570;2023-11-19T05:54:28;100373.88;;;10.99;100.00
75221;BME280;63802;53.232;6.570;2023-11-19T05:56:54;100351.50;;;10.80;100.00
75221;BME280;63802;53.232;6.570;2023-11-19T05:59:20;100373.00;;;10.88;100.00
75221;BME280;63802;53.232;6.570;2023-11-19T06:01:45;100385.88;;;10.88;100.00
75221;BME280;63802;53.232;6.570;2023-11-19T06:04:11;100393.28;;;10.87;100.00
75221;BME280;63802;53.232;6.570;2023-11-19T06:06:37;100369.69;;;10.68;100.00
75221;BME280;63802;53.232;6.570;2023-11-19T06:09:04;100398.72;;;10.84;100.00
75221;BME280;63802;53.232;6.570;2023-11-19T06:11:30;100380.59;;;10.68;100.00
75221;BME280;63802;53.232;6.570;2023-11-19T06:13:56;100369.13;;;10.52;100.00
75221;BME280;63802;53.232;6.570;2023-11-19T06:16:22;100385.97;;;10.61;100.00
75221;BME280;63802;53.232;6.570;2023-11-19T06:18:48;100394.25;;;10.68;100.00
75221;BME280;63802;53.232;6.570;2023-11-19T06:21:13;100358.63;;;10.54;100.00
75221;BME280;63802;53.232;6.570;2023-11-19T06:23:39;100394.66;;;10.70;100.00
75221;BME280;63802;53.232;6.570;2023-11-19T06:26:04;100400.88;;;10.67;100.00
75221;BME280;63802;53.232;6.570;2023-11-19T06:28:31;100379.63;;;10.50;100.00
75221;BME280;63802;53.232;6.570;2023-11-19T06:30:57;100391.34;;;10.51;100.00
75221;BME280;63802;53.232;6.570;2023-11-19T06:33:24;100392.88;;;10.52;100.00
75221;BME280;63802;53.232;6.570;2023-11-19T06:35:49;100409.41;;;10.62;100.00
75221;BME280;63802;53.232;6.570;2023-11-19T06:38:14;100410.94;;;10.63;100.00
75221;BME280;63802;53.232;6.570;2023-11-19T06:40:40;100407.41;;;10.59;100.00
75221;BME280;63802;53.232;6.570;2023-11-19T06:43:06;100408.63;;;10.65;100.00
75221;BME280;63802;53.232;6.570;2023-11-19T06:45:34;100414.84;;;10.62;100.00
75221;BME280;63802;53.232;6.570;2023-11-19T06:48:03;100419.53;;;10.65;100.00
75221;BME280;63802;53.232;6.570;2023-11-19T06:50:30;100390.09;;;10.45;100.00
75221;BME280;63802;53.232;6.570;2023-11-19T06:52:55;100398.81;;;10.57;100.00
75221;BME280;63802;53.232;6.570;2023-11-19T06:55:21;100410.13;;;10.59;100.00
75221;BME280;63802;53.232;6.570;2023-11-19T06:57:49;100385.75;;;10.40;100.00
75221;BME280;63802;53.232;6.570;2023-11-19T07:00:15;100410.88;;;10.56;100.00
75221;BME280;63802;53.232;6.570;2023-11-19T07:02:40;100387.03;;;10.50;100.00
75221;BME280;63802;53.232;6.570;2023-11-19T07:05:06;100403.84;;;10.55;100.00
75221;BME280;63802;53.232;6.570;2023-11-19T07:07:33;100399.88;;;10.49;100.00
75221;BME280;63802;53.232;6.570;2023-11-19T07:09:58;100400.53;;;10.39;100.00
75221;BME280;63802;53.232;6.570;2023-11-19T07:12:24;100406.91;;;10.50;100.00
75221;BME280;63802;53.232;6.570;2023-11-19T07:14:52;100414.00;;;10.58;100.00
75221;BME280;63802;53.232;6.570;2023-11-19T07:17:18;100415.97;;;10.58;100.00
75221;BME280;63802;53.232;6.570;2023-11-19T07:19:49;100402.97;;;10.48;100.00
75221;BME280;63802;53.232;6.570;2023-11-19T07:22:15;100415.09;;;10.50;100.00
75221;BME280;63802;53.232;6.570;2023-11-19T07:24:40;100385.66;;;10.33;100.00
75221;BME280;63802;53.232;6.570;2023-11-19T07:27:06;100420.97;;;10.52;100.00
75221;BME280;63802;53.232;6.570;2023-11-19T07:29:34;100420.16;;;10.48;100.00
75221;BME280;63802;53.232;6.570;2023-11-19T07:31:59;100397.31;;;10.30;100.00
75221;BME280;63802;53.232;6.570;2023-11-19T07:34:27;100426.69;;;10.44;100.00
75221;BME280;63802;53.232;6.570;2023-11-19T07:36:52;100428.66;;;10.43;100.00
75221;BME280;63802;53.232;6.570;2023-11-19T07:39:18;100408.91;;;10.24;100.00
75221;BME280;63802;53.232;6.570;2023-11-19T07:41:43;100405.78;;;10.22;100.00
75221;BME280;63802;53.232;6.570;2023-11-19T07:44:08;100427.69;;;10.29;100.00
75221;BME280;63802;53.232;6.570;2023-11-19T07:46:34;100410.44;;;10.21;100.00
75221;BME280;63802;53.232;6.570;2023-11-19T07:48:59;100443.44;;;10.42;100.00
75221;BME280;63802;53.232;6.570;2023-11-19T07:51:31;100434.09;;;10.43;100.00
75221;BME280;63802;53.232;6.570;2023-11-19T07:53:56;100447.41;;;10.48;100.00
75221;BME280;63802;53.232;6.570;2023-11-19T07:56:25;100434.09;;;10.43;100.00
75221;BME280;63802;53.232;6.570;2023-11-19T07:58:53;100440.38;;;10.47;100.00
75221;BME280;63802;53.232;6.570;2023-11-19T08:01:18;100450.25;;;10.55;100.00
75221;BME280;63802;53.232;6.570;2023-11-19T08:03:44;100452.97;;;10.55;100.00
75221;BME280;63802;53.232;6.570;2023-11-19T08:06:09;100454.53;;;10.56;100.00
75221;BME280;63802;53.232;6.570;2023-11-19T08:08:35;100458.44;;;10.59;100.00
75221;BME280;63802;53.232;6.570;2023-11-19T08:11:03;100451.44;;;10.58;100.00
75221;BME280;63802;53.232;6.570;2023-11-19T08:13:30;100453.38;;;10.57;100.00
75221;BME280;63802;53.232;6.570;2023-11-19T08:15:57;100434.94;;;10.47;100.00
75221;BME280;63802;53.232;6.570;2023-11-19T08:18:23;100458.09;;;10.60;100.00
75221;BME280;63802;53.232;6.570;2023-11-19T08:20:49;100475.63;;;10.59;100.00
75221;BME280;63802;53.232;6.570;2023-11-19T08:23:18;100441.41;;;10.36;100.00
75221;BME280;63802;53.232;6.570;2023-11-19T08:25:43;100441.03;;;10.37;100.00
75221;BME280;63802;53.232;6.570;2023-11-19T08:28:09;100470.88;;;10.53;100.00
75221;BME280;63802;53.232;6.570;2023-11-19T08:30:35;100464.63;;;10.52;100.00
75221;BME280;63802;53.232;6.570;2023-11-19T08:33:00;100476.31;;;10.53;100.00
75221;BME280;63802;53.232;6.570;2023-11-19T08:35:28;100468.91;;;10.53;100.00
75221;BME280;63802;53.232;6.570;2023-11-19T08:37:54;100438.63;;;10.32;100.00
75221;BME280;63802;53.232;6.570;2023-11-19T08:40:19;100435.94;;;10.36;100.00
75221;BME280;63802;53.232;6.570;2023-11-19T08:42:46;100463.44;;;10.53;100.00
75221;BME280;63802;53.232;6.570;2023-11-19T08:45:12;100463.44;;;10.53;100.00
75221;BME280;63802;53.232;6.570;2023-11-19T08:47:40;100470.88;;;10.56;100.00
75221;BME280;63802;53.232;6.570;2023-11-19T08:50:06;100448.97;;;10.49;100.00
75221;BME280;63802;53.232;6.570;2023-11-19T08:52:32;100463.56;;;10.60;100.00
75221;BME280;63802;53.232;6.570;2023-11-19T08:54:58;100468.56;;;10.58;100.00
75221;BME280;63802;53.232;6.570;2023-11-19T08:57:23;100448.56;;;10.47;100.00
75221;BME280;63802;53.232;6.570;2023-11-19T08:59:49;100446.66;;;10.51;100.00
75221;BME280;63802;53.232;6.570;2023-11-19T09:02:17;100463.19;;;10.65;100.00
75221;BME280;63802;53.232;6.570;2023-11-19T09:04:43;100461.25;;;10.66;100.00
75221;BME280;63802;53.232;6.570;2023-11-19T09:07:09;100482.06;;;10.77;100.00
75221;BME280;63802;53.232;6.570;2023-11-19T09:09:35;100476.44;;;10.63;100.00
75221;BME280;63802;53.232;6.570;2023-11-19T09:12:01;100451.34;;;10.51;100.00
75221;BME280;63802;53.232;6.570;2023-11-19T09:14:27;100486.56;;;10.63;100.00
75221;BME280;63802;53.232;6.570;2023-11-19T09:16:52;100484.22;;;10.61;100.00
75221;BME280;63802;53.232;6.570;2023-11-19T09:19:18;100475.66;;;10.63;100.00
75221;BME280;63802;53.232;6.570;2023-11-19T09:21:43;100482.66;;;10.60;100.00
75221;BME280;63802;53.232;6.570;2023-11-19T09:24:09;100477.56;;;10.59;100.00
75221;BME280;63802;53.232;6.570;2023-11-19T09:26:34;100486.53;;;10.59;100.00
75221;BME280;63802;53.232;6.570;2023-11-19T09:29:01;100485.88;;;10.69;100.00
75221;BME280;63802;53.232;6.570;2023-11-19T09:31:27;100484.38;;;10.75;100.00
75221;BME280;63802;53.232;6.570;2023-11-19T09:33:52;100478.28;;;10.86;100.00
75221;BME280;63802;53.232;6.570;2023-11-19T09:36:18;100482.41;;;11.06;100.00
75221;BME280;63802;53.232;6.570;2023-11-19T09:38:44;100480.91;;;11.12;100.00
75221;BME280;63802;53.232;6.570;2023-11-19T09:41:10;100484.81;;;11.11;100.00
75221;BME280;63802;53.232;6.570;2023-11-19T09:43:41;100475.41;;;11.08;100.00
75221;BME280;63802;53.232;6.570;2023-11-19T09:46:09;100487.97;;;11.16;100.00
75221;BME280;63802;53.232;6.570;2023-11-19T09:48:39;100476.31;;;11.19;100.00
75221;BME280;63802;53.232;6.570;2023-11-19T09:51:09;100460.72;;;11.23;100.00
75221;BME280;63802;53.232;6.570;2023-11-19T09:53:35;100476.22;;;11.49;100.00
75221;BME280;63802;53.232;6.570;2023-11-19T09:56:05;100477.41;;;11.55;100.00
75221;BME280;63802;53.232;6.570;2023-11-19T09:58:34;100486.78;;;11.54;100.00
75221;BME280;63802;53.232;6.570;2023-11-19T10:01:00;100491.03;;;11.48;100.00
75221;BME280;63802;53.232;6.570;2023-11-19T10:03:32;100460.38;;;11.25;100.00
75221;BME280;63802;53.232;6.570;2023-11-19T10:05:57;100489.63;;;11.24;100.00
75221;BME280;63802;53.232;6.570;2023-11-19T10:08:23;100484.16;;;11.24;100.00
75221;BME280;63802;53.232;6.570;2023-11-19T10:10:49;100499.09;;;11.34;100.00
75221;BME280;63802;53.232;6.570;2023-11-19T10:13:14;100496.00;;;11.39;100.00
75221;BME280;63802;53.232;6.570;2023-11-19T10:15:40;100497.22;;;11.41;100.00
75221;BME280;63802;53.232;6.570;2023-11-19T10:18:06;100503.09;;;11.43;100.00
75221;BME280;63802;53.232;6.570;2023-11-19T10:20:38;100475.63;;;11.29;100.00
75221;BME280;63802;53.232;6.570;2023-11-19T10:23:05;100507.81;;;11.50;100.00
75221;BME280;63802;53.232;6.570;2023-11-19T10:25:32;100492.97;;;11.48;100.00
75221;BME280;63802;53.232;6.570;2023-11-19T10:27:59;100496.91;;;11.50;100.00
75221;BME280;63802;53.232;6.570;2023-11-19T10:30:29;100456.94;;;11.35;100.00
75221;BME280;63802;53.232;6.570;2023-11-19T10:33:13;100507.88;;;11.54;100.00
75221;BME280;63802;53.232;6.570;2023-11-19T10:35:55;100497.50;;;11.33;100.00
75221;BME280;63802;53.232;6.570;2023-11-19T10:38:24;100505.44;;;11.45;100.00
75221;BME280;63802;53.232;6.570;2023-11-19T10:40:51;100493.00;;;11.51;100.00
75221;BME280;63802;53.232;6.570;2023-11-19T10:43:17;100511.03;;;11.59;100.00
75221;BME280;63802;53.232;6.570;2023-11-19T10:45:43;100504.06;;;11.65;100.00
75221;BME280;63802;53.232;6.570;2023-11-19T10:48:09;100506.50;;;11.70;100.00
75221;BME280;63802;53.232;6.570;2023-11-19T10:50:36;100508.03;;;11.71;100.00
75221;BME280;63802;53.232;6.570;2023-11-19T10:53:03;100510.50;;;11.83;100.00
75221;BME280;63802;53.232;6.570;2023-11-19T10:55:31;100478.41;;;11.73;100.00
75221;BME280;63802;53.232;6.570;2023-11-19T10:57:59;100460.41;;;11.72;100.00
75221;BME280;63802;53.232;6.570;2023-11-19T11:00:26;100487.56;;;11.98;100.00
75221;BME280;63802;53.232;6.570;2023-11-19T11:02:55;100513.03;;;12.09;100.00
75221;BME280;63802;53.232;6.570;2023-11-19T11:05:22;100514.56;;;12.03;100.00
75221;BME280;63802;53.232;6.570;2023-11-19T11:07:51;100492.59;;;11.89;100.00
75221;BME280;63802;53.232;6.570;2023-11-19T11:10:18;100493.69;;;11.81;100.00
75221;BME280;63802;53.232;6.570;2023-11-19T11:12:47;100504.22;;;11.79;100.00
75221;BME280;63802;53.232;6.570;2023-11-19T11:15:17;100501.34;;;11.65;100.00
75221;BME280;63802;53.232;6.570;2023-11-19T11:17:44;100497.78;;;11.61;100.00
75221;BME280;63802;53.232;6.570;2023-11-19T11:20:11;100505.19;;;11.61;100.00
75221;BME280;63802;53.232;6.570;2023-11-19T11:25:54;100504.03;;;11.62;100.00
75221;BME280;63802;53.232;6.570;2023-11-19T11:34:09;100517.59;;;11.51;100.00
75221;BME280;63802;53.232;6.570;2023-11-19T11:37:05;100510.22;;;11.55;100.00
75221;BME280;63802;53.232;6.570;2023-11-19T11:39:33;100502.47;;;11.61;100.00
75221;BME280;63802;53.232;6.570;2023-11-19T11:45:16;100477.47;;;11.59;100.00
75221;BME280;63802;53.232;6.570;2023-11-19T11:50:11;100504.91;;;11.69;100.00
75221;BME280;63802;53.232;6.570;2023-11-19T11:55:39;100504.69;;;11.48;100.00
75221;BME280;63802;53.232;6.570;2023-11-19T11:58:30;100498.41;;;11.44;100.00
75221;BME280;63802;53.232;6.570;2023-11-19T12:01:01;100486.50;;;11.26;100.00
75221;BME280;63802;53.232;6.570;2023-11-19T12:03:28;100468.50;;;11.18;100.00
75221;BME280;63802;53.232;6.570;2023-11-19T12:05:54;100466.84;;;11.13;100.00
75221;BME280;63802;53.232;6.570;2023-11-19T12:08:25;100461.03;;;11.15;100.00
75221;BME280;63802;53.232;6.570;2023-11-19T12:10:51;100462.72;;;11.26;100.00
75221;BME280;63802;53.232;6.570;2023-11-19T12:13:18;100443.88;;;11.14;100.00
75221;BME280;63802;53.232;6.570;2023-11-19T12:18:24;100463.47;;;11.67;100.00
75221;BME280;63802;53.232;6.570;2023-11-19T12:20:52;100456.25;;;11.89;100.00
75221;BME280;63802;53.232;6.570;2023-11-19T12:23:18;100459.88;;;12.03;100.00
75221;BME280;63802;53.232;6.570;2023-11-19T12:25:43;100471.63;;;12.11;100.00
75221;BME280;63802;53.232;6.570;2023-11-19T12:28:15;100463.03;;;12.13;100.00
75221;BME280;63802;53.232;6.570;2023-11-19T12:30:45;100472.56;;;12.33;100.00
75221;BME280;63802;53.232;6.570;2023-11-19T12:33:11;100465.13;;;12.37;100.00
75221;BME280;63802;53.232;6.570;2023-11-19T12:35:41;100469.50;;;12.45;100.00
75221;BME280;63802;53.232;6.570;2023-11-19T12:38:08;100478.09;;;12.47;100.00
75221;BME280;63802;53.232;6.570;2023-11-19T12:40:33;100473.41;;;12.47;100.00
75221;BME280;63802;53.232;6.570;2023-11-19T12:42:59;100451.03;;;12.28;100.00
75221;BME280;63802;53.232;6.570;2023-11-19T12:45:34;100483.44;;;12.22;100.00
75221;BME280;63802;53.232;6.570;2023-11-19T12:48:09;100480.31;;;12.24;100.00
75221;BME280;63802;53.232;6.570;2023-11-19T12:53:18;100484.16;;;12.16;100.00
75221;BME280;63802;53.232;6.570;2023-11-19T12:55:44;100482.53;;;12.04;100.00
75221;BME280;63802;53.232;6.570;2023-11-19T12:58:10;100455.09;;;11.90;100.00
75221;BME280;63802;53.232;6.570;2023-11-19T13:00:35;100482.88;;;11.99;100.00
75221;BME280;63802;53.232;6.570;2023-11-19T13:03:00;100482.88;;;11.99;100.00
75221;BME280;63802;53.232;6.570;2023-11-19T13:05:31;100482.03;;;11.91;100.00